Time;durP1;ratioP1;P1;durP2;ratioP2;P2;SDS_P1;SDS_P2;PMS_P1;PMS_P2;Temp;Humidity;BMP_temperature;BMP_pressure;BME280_temperature;BME280_humidity;BME280_pressure;Samples;Min_cycle;Max_cycle;Signal;HPM_P1;HPM_P2
2021/09/22 00:00:12;;;;;;;28.25;10.93;;;;;;;-149.78;100.00;50154.63;4853957;29;20161;-59
2021/09/22 00:02:40;;;;;;;25.95;12.18;;;;;;;-149.78;100.00;50189.81;4852695;29;20044;-59
2021/09/22 00:05:07;;;;;;;29.30;12.40;;;;;;;-149.78;100.00;50178.09;4842281;29;20049;-60
2021/09/22 00:07:33;;;;;;;27.60;12.07;;;;;;;-149.78;100.00;50148.75;4852518;29;20121;-60
2021/09/22 00:09:58;;;;;;;28.63;11.73;;;;;;;-149.78;100.00;50160.50;4856270;29;20112;-60
2021/09/22 00:12:24;;;;;;;30.17;12.32;;;;;;;-149.78;100.00;50162.44;4851051;29;20029;-60
2021/09/22 00:14:53;;;;;;;28.48;12.23;;;;;;;-149.78;100.00;50185.91;4846429;29;20030;-60
2021/09/22 00:17:19;;;;;;;28.13;11.45;;;;;;;-149.78;100.00;50162.44;4852907;29;20037;-59
2021/09/22 00:19:44;;;;;;;27.33;10.82;;;;;;;-149.78;100.00;50185.91;4842213;29;20132;-59
2021/09/22 00:22:10;;;;;;;26.25;10.77;;;;;;;-149.78;100.00;50201.56;4858744;29;20041;-59
2021/09/22 00:24:36;;;;;;;30.35;10.98;;;;;;;-149.78;100.00;50211.34;4860638;29;20137;-59
2021/09/22 00:27:03;;;;;;;26.48;10.85;;;;;;;-149.78;100.00;50185.91;4859582;29;20069;-59
2021/09/22 00:29:29;;;;;;;25.38;9.63;;;;;;;-149.78;100.00;50180.03;4853029;29;20093;-59
2021/09/22 00:31:54;;;;;;;27.13;11.77;;;;;;;-149.78;100.00;50219.16;4856508;29;20045;-59
2021/09/22 00:34:20;;;;;;;25.52;10.88;;;;;;;-149.78;100.00;50178.09;4856140;29;20037;-60
2021/09/22 00:36:46;;;;;;;29.00;10.70;;;;;;;-149.78;100.00;50133.09;4842250;29;20049;-60
2021/09/22 00:39:12;;;;;;;27.00;11.57;;;;;;;-149.78;100.00;50178.09;4858100;29;20042;-60
2021/09/22 00:41:38;;;;;;;26.83;11.60;;;;;;;-149.78;100.00;50178.09;4852249;29;20067;-60
2021/09/22 00:44:04;;;;;;;27.00;11.15;;;;;;;-149.78;100.00;50162.44;4857083;29;20117;-60
2021/09/22 00:46:30;;;;;;;28.92;10.90;;;;;;;-149.78;100.00;50205.47;4852138;29;20078;-60
2021/09/22 00:48:56;;;;;;;28.70;12.25;;;;;;;-149.78;100.00;50158.53;4854321;29;20042;-60
2021/09/22 00:51:21;;;;;;;22.95;10.75;;;;;;;-149.78;100.00;50178.09;4851760;29;20037;-59
2021/09/22 00:53:47;;;;;;;26.13;10.63;;;;;;;-149.78;100.00;50174.19;4852888;29;20052;-60
2021/09/22 00:56:14;;;;;;;26.77;8.10;;;;;;;-149.78;100.00;50205.47;4852328;29;20038;-59
2021/09/22 00:58:40;;;;;;;16.30;7.97;;;;;;;-149.78;100.00;50162.44;4851035;29;20546;-60
2021/09/22 01:01:05;;;;;;;18.80;8.30;;;;;;;-149.78;100.00;50203.50;4856203;29;20128;-59
2021/09/22 01:03:31;;;;;;;25.92;8.50;;;;;;;-149.78;100.00;50203.50;4849374;29;20046;-60
2021/09/22 01:06:00;;;;;;;22.58;9.77;;;;;;;-149.78;100.00;50185.91;4846818;29;20046;-60
2021/09/22 01:08:27;;;;;;;21.23;9.05;;;;;;;-149.78;100.00;50176.13;4842113;29;20029;-60
2021/09/22 01:10:53;;;;;;;28.02;9.18;;;;;;;-149.78;100.00;50182.00;4851162;29;20122;-60
2021/09/22 01:13:19;;;;;;;17.73;8.73;;;;;;;-149.78;100.00;50168.31;4859697;29;20127;-60
2021/09/22 01:15:45;;;;;;;22.60;9.20;;;;;;;-149.78;100.00;50166.34;4859883;29;20046;-60
2021/09/22 01:18:16;;;;;;;20.70;8.48;;;;;;;-149.78;100.00;50193.72;4857640;29;20041;-60
2021/09/22 01:20:42;;;;;;;19.13;8.88;;;;;;;-149.78;100.00;50176.13;4852844;29;20426;-60
2021/09/22 01:23:08;;;;;;;17.92;8.77;;;;;;;-149.78;100.00;50221.13;4842071;29;20053;-60
2021/09/22 01:25:40;;;;;;;17.33;8.73;;;;;;;-149.78;100.00;50174.19;4859789;29;20101;-60
2021/09/22 01:28:06;;;;;;;16.75;7.90;;;;;;;-149.78;100.00;50183.97;4859095;29;20375;-60
2021/09/22 01:30:32;;;;;;;17.42;7.78;;;;;;;-149.78;100.00;50182.00;4859146;29;20093;-60
2021/09/22 01:33:01;;;;;;;19.50;8.90;;;;;;;-149.78;100.00;50185.91;4859039;29;20531;-60
2021/09/22 01:35:34;;;;;;;18.52;8.77;;;;;;;-149.78;100.00;50183.97;4859887;29;20121;-60
2021/09/22 01:37:59;;;;;;;20.60;8.23;;;;;;;-149.78;100.00;50189.81;4857116;29;20049;-60
2021/09/22 01:40:25;;;;;;;19.05;8.68;;;;;;;-149.78;100.00;50178.09;4855146;29;20044;-60
2021/09/22 01:42:50;;;;;;;21.42;9.30;;;;;;;-149.78;100.00;50217.19;4854751;29;20121;-60
2021/09/22 01:45:16;;;;;;;22.25;10.65;;;;;;;-149.78;100.00;50201.56;4859402;29;20046;-60
2021/09/22 01:47:42;;;;;;;20.73;10.48;;;;;;;-149.78;100.00;50201.56;4843444;29;20054;-60
2021/09/22 01:50:12;;;;;;;25.75;9.88;;;;;;;-149.78;100.00;50195.69;4857332;29;20037;-60
2021/09/22 01:52:38;;;;;;;24.13;11.13;;;;;;;-149.78;100.00;50158.53;4855409;29;20041;-59
2021/09/22 01:55:06;;;;;;;29.77;11.25;;;;;;;-149.78;100.00;50168.31;4847878;29;20037;-60
2021/09/22 01:57:32;;;;;;;20.05;11.50;;;;;;;-149.78;100.00;50197.66;4860276;29;20034;-60
2021/09/22 01:59:58;;;;;;;31.20;12.70;;;;;;;-149.78;100.00;50189.81;4858439;29;20041;-60
2021/09/22 02:02:24;;;;;;;32.33;13.45;;;;;;;-149.78;100.00;50209.38;4858689;29;20067;-60
2021/09/22 02:04:49;;;;;;;31.25;14.60;;;;;;;-149.78;100.00;50146.81;4859031;29;20026;-60
2021/09/22 02:07:15;;;;;;;34.42;16.17;;;;;;;-149.78;100.00;50185.91;4860225;29;20470;-60
2021/09/22 02:09:41;;;;;;;34.67;16.33;;;;;;;-149.78;100.00;50197.66;4858527;29;20105;-60
2021/09/22 02:12:07;;;;;;;38.95;17.40;;;;;;;-149.78;100.00;50197.66;4854736;29;20045;-59
2021/09/22 02:14:33;;;;;;;40.03;17.65;;;;;;;-149.78;100.00;50182.00;4851176;29;20072;-60
2021/09/22 02:16:58;;;;;;;32.75;16.92;;;;;;;-149.78;100.00;50197.66;4858457;29;20072;-60
2021/09/22 02:19:24;;;;;;;32.20;16.75;;;;;;;-149.78;100.00;50189.81;4859148;29;20038;-60
2021/09/22 02:21:50;;;;;;;30.70;15.38;;;;;;;-149.78;100.00;50217.19;4859905;29;20431;-60
2021/09/22 02:24:16;;;;;;;34.50;15.40;;;;;;;-149.78;100.00;50225.03;4859521;29;20419;-60
2021/09/22 02:26:41;;;;;;;31.45;15.27;;;;;;;-149.78;100.00;50185.91;4860819;29;20046;-60
2021/09/22 02:29:07;;;;;;;33.90;14.93;;;;;;;-149.78;100.00;50201.56;4858856;29;20072;-60
2021/09/22 02:31:33;;;;;;;34.80;16.15;;;;;;;-149.78;100.00;50197.66;4861612;29;20055;-60
2021/09/22 02:33:59;;;;;;;34.13;15.20;;;;;;;-149.78;100.00;50182.00;4861391;29;20038;-60
2021/09/22 02:36:25;;;;;;;31.23;14.90;;;;;;;-149.78;100.00;50201.56;4855723;29;20025;-59
2021/09/22 02:38:52;;;;;;;32.45;15.05;;;;;;;-149.78;100.00;50185.91;4859675;29;20056;-60
2021/09/22 02:41:18;;;;;;;24.15;12.95;;;;;;;-149.78;100.00;50223.06;4859495;29;20061;-60
2021/09/22 02:43:44;;;;;;;27.25;12.75;;;;;;;-149.78;100.00;50197.66;4846567;29;20065;-60
2021/09/22 02:46:09;;;;;;;26.08;10.68;;;;;;;-149.78;100.00;50201.56;4845866;29;20500;-60
2021/09/22 02:48:35;;;;;;;23.38;11.75;;;;;;;-149.78;100.00;50174.19;4862421;29;20045;-60
2021/09/22 02:51:01;;;;;;;25.75;11.30;;;;;;;-149.78;100.00;50203.50;4861308;29;20041;-59
2021/09/22 02:53:26;;;;;;;21.45;10.20;;;;;;;-149.78;100.00;50189.81;4858882;29;20174;-60
2021/09/22 02:55:52;;;;;;;22.80;10.15;;;;;;;-149.78;100.00;50182.00;4854171;29;20077;-60
2021/09/22 02:58:17;;;;;;;18.33;10.30;;;;;;;-149.78;100.00;50201.56;4860753;29;20040;-59
2021/09/22 03:00:43;;;;;;;20.77;10.65;;;;;;;-149.78;100.00;50219.16;4857001;29;20046;-60
2021/09/22 03:03:09;;;;;;;22.83;11.73;;;;;;;-149.78;100.00;50174.19;4851786;29;20427;-60
2021/09/22 03:05:38;;;;;;;24.25;11.07;;;;;;;-149.78;100.00;50213.28;4861331;29;20490;-60
2021/09/22 03:08:03;;;;;;;26.92;12.43;;;;;;;-149.78;100.00;50221.13;4861575;29;20097;-60
2021/09/22 03:10:29;;;;;;;26.50;11.77;;;;;;;-149.78;100.00;50211.34;4861037;29;20049;-59
2021/09/22 03:12:55;;;;;;;27.45;11.98;;;;;;;-149.78;100.00;50185.91;4860782;29;20049;-60
2021/09/22 03:15:21;;;;;;;29.23;12.55;;;;;;;-149.78;100.00;50219.16;4861152;29;20125;-60
2021/09/22 03:17:49;;;;;;;28.65;10.77;;;;;;;-149.78;100.00;50185.91;4855629;29;20033;-60
2021/09/22 03:20:15;;;;;;;22.63;10.88;;;;;;;-149.78;100.00;50213.28;4857322;29;20037;-60
2021/09/22 03:22:41;;;;;;;24.15;11.48;;;;;;;-149.78;100.00;50213.28;4860896;29;20098;-60
2021/09/22 03:25:08;;;;;;;27.80;11.77;;;;;;;-149.78;100.00;50221.13;4860294;29;20052;-60
2021/09/22 03:27:34;;;;;;;25.10;11.80;;;;;;;-149.78;100.00;50182.00;4860273;29;20041;-60
2021/09/22 03:29:59;;;;;;;26.88;11.15;;;;;;;-149.78;100.00;50197.66;4860075;29;20032;-60
2021/09/22 03:32:25;;;;;;;22.95;10.73;;;;;;;-149.78;100.00;50205.47;4857154;29;20037;-60
2021/09/22 03:34:50;;;;;;;25.42;11.65;;;;;;;-149.78;100.00;50228.94;4860159;29;20378;-60
2021/09/22 03:37:16;;;;;;;22.30;10.35;;;;;;;-149.78;100.00;50213.28;4857236;29;20033;-60
2021/09/22 03:39:41;;;;;;;21.23;9.93;;;;;;;-149.78;100.00;50205.47;4861738;29;20042;-60
2021/09/22 03:42:07;;;;;;;18.95;7.90;;;;;;;-149.78;100.00;50197.66;4860745;29;20041;-60
2021/09/22 03:44:33;;;;;;;17.02;9.25;;;;;;;-149.78;100.00;50182.00;4859946;29;20052;-60
2021/09/22 03:46:58;;;;;;;18.65;9.32;;;;;;;-149.78;100.00;50205.47;4860933;29;20150;-60
2021/09/22 03:49:24;;;;;;;18.25;9.38;;;;;;;-149.78;100.00;50189.81;4861075;29;20038;-60
2021/09/22 03:51:50;;;;;;;20.13;9.32;;;;;;;-149.78;100.00;50197.66;4857644;29;20118;-59
2021/09/22 03:54:15;;;;;;;18.70;9.00;;;;;;;-149.78;100.00;50185.91;4859891;29;20041;-60
2021/09/22 03:56:41;;;;;;;17.90;9.48;;;;;;;-149.78;100.00;50174.19;4859178;29;20034;-60
2021/09/22 03:59:07;;;;;;;19.58;8.52;;;;;;;-149.78;100.00;50236.75;4859478;29;20502;-60
2021/09/22 04:01:32;;;;;;;20.02;8.88;;;;;;;-149.78;100.00;50189.81;4861364;29;20052;-60
2021/09/22 04:03:58;;;;;;;17.85;8.45;;;;;;;-149.78;100.00;50201.56;4870664;29;20044;-59
2021/09/22 04:06:23;;;;;;;18.85;8.93;;;;;;;-149.78;100.00;50189.81;4861271;29;20065;-59
2021/09/22 04:08:50;;;;;;;20.73;9.57;;;;;;;-149.78;100.00;50189.81;4859816;29;20037;-60
2021/09/22 04:11:17;;;;;;;18.60;8.98;;;;;;;-149.78;100.00;50205.47;4861113;29;20039;-59
2021/09/22 04:13:42;;;;;;;17.27;8.73;;;;;;;-149.78;100.00;50232.84;4861073;29;20047;-59
2021/09/22 04:16:10;;;;;;;17.33;8.15;;;;;;;-149.78;100.00;50252.41;4859426;29;22399;-59
2021/09/22 04:18:37;;;;;;;16.20;8.50;;;;;;;-149.78;100.00;50203.50;4861233;29;20487;-60
2021/09/22 04:21:03;;;;;;;19.13;8.75;;;;;;;-149.78;100.00;50221.13;4858863;29;20069;-59
2021/09/22 04:23:29;;;;;;;22.17;8.40;;;;;;;-149.78;100.00;50244.59;4860090;29;20458;-59
2021/09/22 04:25:55;;;;;;;17.75;9.02;;;;;;;-149.78;100.00;50209.38;4856383;29;20050;-60
2021/09/22 04:28:21;;;;;;;16.00;9.00;;;;;;;-149.78;100.00;50242.63;4860049;29;20049;-59
2021/09/22 04:30:47;;;;;;;15.65;8.55;;;;;;;-149.78;100.00;50264.13;4860552;29;20045;-59
2021/09/22 04:33:13;;;;;;;18.90;8.95;;;;;;;-149.78;100.00;50236.75;4859466;29;20093;-60
2021/09/22 04:35:38;;;;;;;22.65;9.98;;;;;;;-149.78;100.00;50232.84;4844165;29;20041;-60
2021/09/22 04:38:06;;;;;;;20.25;9.55;;;;;;;-149.78;100.00;50217.19;4858527;29;20077;-59
2021/09/22 04:40:32;;;;;;;22.77;9.60;;;;;;;-149.78;100.00;50260.22;4860607;29;20033;-59
2021/09/22 04:42:59;;;;;;;19.50;9.40;;;;;;;-149.78;100.00;50201.56;4859399;29;20056;-59
2021/09/22 04:45:25;;;;;;;23.42;9.48;;;;;;;-149.78;100.00;50225.03;4859048;29;20084;-60
2021/09/22 04:47:53;;;;;;;20.05;10.13;;;;;;;-149.78;100.00;50232.84;4855282;29;20429;-59
2021/09/22 04:50:20;;;;;;;23.45;9.23;;;;;;;-149.78;100.00;50244.59;4854478;29;20037;-59
2021/09/22 04:52:46;;;;;;;21.02;9.38;;;;;;;-149.78;100.00;50256.31;4859293;29;20049;-60
2021/09/22 04:55:12;;;;;;;19.85;9.95;;;;;;;-149.78;100.00;50264.13;4860098;29;20037;-59
2021/09/22 04:57:39;;;;;;;17.40;8.98;;;;;;;-149.78;100.00;50264.13;4859941;29;20041;-60
2021/09/22 05:00:06;;;;;;;17.27;8.98;;;;;;;-149.78;100.00;50252.41;4858940;29;20045;-60
2021/09/22 05:02:31;;;;;;;20.92;10.85;;;;;;;-149.78;100.00;50260.22;4859887;29;20553;-60
2021/09/22 05:04:57;;;;;;;24.73;10.50;;;;;;;-149.78;100.00;50287.59;4859002;29;20133;-60
2021/09/22 05:07:23;;;;;;;25.52;10.05;;;;;;;-149.78;100.00;50221.13;4858261;29;20033;-59
2021/09/22 05:09:48;;;;;;;21.23;10.75;;;;;;;-149.78;100.00;50230.88;4860284;29;20435;-60
2021/09/22 05:12:14;;;;;;;24.00;12.25;;;;;;;-149.78;100.00;50258.28;4858630;29;20036;-59
2021/09/22 05:14:40;;;;;;;23.48;11.10;;;;;;;-149.78;100.00;50236.75;4859757;29;20373;-59
2021/09/22 05:17:06;;;;;;;24.67;12.38;;;;;;;-149.78;100.00;50248.50;4859774;29;20093;-60
2021/09/22 05:19:31;;;;;;;24.35;12.52;;;;;;;-149.78;100.00;50228.94;4856146;29;20037;-59
2021/09/22 05:21:57;;;;;;;24.33;12.70;;;;;;;-149.78;100.00;50242.63;4860555;29;20038;-60
2021/09/22 05:24:23;;;;;;;22.27;11.30;;;;;;;-149.78;100.00;50273.91;4858200;29;20486;-59
2021/09/22 05:26:48;;;;;;;24.48;11.55;;;;;;;-149.78;100.00;50250.44;4858871;29;20049;-65
2021/09/22 05:29:14;;;;;;;26.00;11.07;;;;;;;-149.78;100.00;50228.94;4859483;29;20173;-65
2021/09/22 05:31:40;;;;;;;28.55;13.00;;;;;;;-149.78;100.00;50252.41;4851404;29;20034;-64
2021/09/22 05:34:05;;;;;;;20.50;11.48;;;;;;;-149.78;100.00;50228.94;4853868;29;20041;-65
2021/09/22 05:36:31;;;;;;;24.08;12.77;;;;;;;-149.78;100.00;50252.41;4856229;29;20480;-64
2021/09/22 05:38:57;;;;;;;22.75;11.05;;;;;;;-149.78;100.00;50254.34;4859371;29;20144;-64
2021/09/22 05:41:22;;;;;;;23.88;12.20;;;;;;;-149.78;100.00;50226.97;4858408;29;20042;-65
2021/09/22 05:43:48;;;;;;;20.83;10.88;;;;;;;-149.78;100.00;50270.00;4858802;29;20509;-65
2021/09/22 05:46:14;;;;;;;29.05;12.27;;;;;;;-149.78;100.00;50228.94;4858513;29;20042;-65
2021/09/22 05:48:40;;;;;;;27.90;11.82;;;;;;;-149.78;100.00;50240.66;4842363;29;20393;-65
2021/09/22 05:51:06;;;;;;;23.27;10.75;;;;;;;-149.78;100.00;50228.94;4858669;29;20038;-64
2021/09/22 05:53:32;;;;;;;25.45;10.88;;;;;;;-149.78;100.00;50283.69;4851288;29;20041;-65
2021/09/22 05:55:57;;;;;;;20.50;9.85;;;;;;;-149.78;100.00;50225.03;4829607;29;20098;-65
2021/09/22 05:58:24;;;;;;;21.42;10.05;;;;;;;-149.78;100.00;50248.50;4845291;29;20052;-65
2021/09/22 06:00:51;;;;;;;20.02;9.27;;;;;;;-149.78;100.00;50236.75;4845242;29;20068;-65
2021/09/22 06:03:18;;;;;;;21.40;9.85;;;;;;;-149.78;100.00;50252.41;4852828;29;20843;-64
2021/09/22 06:05:43;;;;;;;21.38;9.18;;;;;;;-149.78;100.00;50252.41;4851625;29;20044;-65
2021/09/22 06:08:09;;;;;;;20.60;9.25;;;;;;;-149.78;100.00;50252.41;4848358;29;20041;-65
2021/09/22 06:10:37;;;;;;;23.90;9.20;;;;;;;-149.78;100.00;50203.50;4852464;29;20130;-64
2021/09/22 06:13:05;;;;;;;24.27;10.23;;;;;;;-149.78;100.00;50246.53;4851704;29;20041;-64
2021/09/22 06:15:30;;;;;;;19.08;9.25;;;;;;;-149.78;100.00;50217.19;4854626;29;20533;-65
2021/09/22 06:17:56;;;;;;;21.15;10.35;;;;;;;-149.78;100.00;50234.81;4851277;29;20026;-64
2021/09/22 06:20:22;;;;;;;21.77;10.35;;;;;;;-149.78;100.00;50240.66;4857545;29;20049;-65
2021/09/22 06:22:47;;;;;;;20.13;10.63;;;;;;;-149.78;100.00;50283.69;4841526;29;20035;-65
2021/09/22 06:25:14;;;;;;;22.27;9.50;;;;;;;-149.78;100.00;50225.03;4846885;29;20037;-65
2021/09/22 06:27:40;;;;;;;16.75;9.73;;;;;;;-149.78;100.00;50236.75;4854035;29;20061;-65
2021/09/22 06:30:07;;;;;;;22.40;10.73;;;;;;;-149.78;100.00;50221.13;4835077;29;21376;-65
2021/09/22 06:32:35;;;;;;;22.50;12.50;;;;;;;-149.78;100.00;50264.13;4848635;29;20034;-66
2021/09/22 06:35:02;;;;;;;21.15;12.13;;;;;;;-149.78;100.00;50250.44;4850698;29;20033;-66
2021/09/22 06:37:27;;;;;;;22.95;12.23;;;;;;;-149.78;100.00;50226.97;4851270;29;20434;-66
2021/09/22 06:39:53;;;;;;;24.77;13.00;;;;;;;-149.78;100.00;50228.94;4855576;29;20120;-65
2021/09/22 06:42:19;;;;;;;27.98;12.77;;;;;;;-149.78;100.00;50256.31;4845932;29;20509;-65
2021/09/22 06:44:45;;;;;;;23.17;12.75;;;;;;;-149.78;100.00;50201.56;4846617;29;20042;-64
2021/09/22 06:47:10;;;;;;;26.40;13.60;;;;;;;-149.78;100.00;50221.13;4852096;29;20041;-65
2021/09/22 06:49:36;;;;;;;23.10;13.38;;;;;;;-149.78;100.00;50240.66;4846230;29;20056;-64
2021/09/22 06:52:02;;;;;;;33.22;16.15;;;;;;;-149.78;100.00;50228.94;4855601;29;20382;-63
2021/09/22 06:54:28;;;;;;;29.35;14.98;;;;;;;-149.78;100.00;50226.97;4851921;29;20042;-65
2021/09/22 06:56:54;;;;;;;31.52;15.50;;;;;;;-149.78;100.00;50225.03;4831060;29;20069;-65
2021/09/22 06:59:19;;;;;;;28.13;15.13;;;;;;;-149.78;100.00;50215.25;4856459;29;20471;-64
2021/09/22 07:01:45;;;;;;;30.95;16.17;;;;;;;-149.78;100.00;50185.91;4847230;29;20034;-66
2021/09/22 07:04:11;;;;;;;30.88;16.48;;;;;;;-149.78;100.00;50225.03;4851393;29;20041;-65
2021/09/22 07:06:36;;;;;;;29.98;16.33;;;;;;;-149.78;100.00;50268.03;4846438;29;20113;-65
2021/09/22 07:09:03;;;;;;;34.95;16.63;;;;;;;-149.78;100.00;50213.28;4850359;29;20046;-66
2021/09/22 07:11:29;;;;;;;29.00;15.18;;;;;;;-149.78;100.00;50189.81;4849878;29;20063;-67
2021/09/22 07:13:54;;;;;;;26.77;15.13;;;;;;;-149.78;100.00;50185.91;4840647;29;20091;-65
2021/09/22 07:16:20;;;;;;;27.77;15.15;;;;;;;-149.78;100.00;50209.38;4853238;29;20082;-64
2021/09/22 07:18:46;;;;;;;26.80;15.25;;;;;;;-149.78;100.00;50217.19;4848951;29;20046;-65
2021/09/22 07:21:14;;;;;;;27.73;15.60;;;;;;;-149.78;100.00;50217.19;4833081;29;20045;-64
2021/09/22 07:23:41;;;;;;;29.90;15.57;;;;;;;-149.78;100.00;50201.56;4850900;29;20041;-64
2021/09/22 07:26:07;;;;;;;24.08;14.18;;;;;;;-149.78;100.00;50152.66;4850160;29;20054;-64
2021/09/22 07:28:34;;;;;;;26.58;13.85;;;;;;;-149.78;100.00;50187.88;4853620;29;20093;-65
2021/09/22 07:31:02;;;;;;;22.02;12.77;;;;;;;-149.78;100.00;50140.94;4847028;29;20072;-65
2021/09/22 07:33:28;;;;;;;16.65;9.95;;;;;;;-149.78;100.00;50095.94;4850920;29;20045;-64
2021/09/22 07:35:54;;;;;;;14.68;8.68;;;;;;;-149.78;100.00;50043.16;4854391;29;20041;-64
2021/09/22 07:38:20;;;;;;;15.23;8.68;;;;;;;-149.78;100.00;50033.38;4835090;29;20148;-65
2021/09/22 07:40:46;;;;;;;10.13;7.82;;;;;;;-149.78;76.48;50021.63;4858507;29;20462;-65
2021/09/22 07:43:12;;;;;;;12.35;7.88;;;;;;;-149.78;74.08;49986.44;4854806;29;20041;-65
2021/09/22 07:45:38;;;;;;;9.70;7.20;;;;;;;-149.78;64.49;49982.53;4859597;29;20112;-66
2021/09/22 07:48:05;;;;;;;10.38;7.53;;;;;;;-149.78;61.24;49978.63;4859626;29;20048;-66
2021/09/22 07:50:32;;;;;;;10.50;7.00;;;;;;;-149.78;55.64;49955.16;4852476;29;20109;-66
2021/09/22 07:52:58;;;;;;;12.02;7.65;;;;;;;-149.78;53.79;49900.41;4856886;29;20466;-66
2021/09/22 07:55:24;;;;;;;7.15;6.10;;;;;;;-149.78;54.19;49910.19;4861224;29;20094;-66
2021/09/22 07:57:53;;;;;;;10.52;6.82;;;;;;;-149.78;53.40;49935.59;4861022;29;20040;-66
2021/09/22 08:00:18;;;;;;;8.55;6.80;;;;;;;-149.78;52.47;49886.72;4859602;29;20116;-66
2021/09/22 08:02:45;;;;;;;9.35;7.10;;;;;;;-149.78;54.52;49939.50;4847130;29;20058;-68
2021/09/22 08:05:11;;;;;;;12.05;7.03;;;;;;;-149.78;54.32;49888.66;4858871;29;20044;-67
2021/09/22 08:07:37;;;;;;;12.27;6.88;;;;;;;-149.78;52.34;49923.88;4861692;29;20128;-67
2021/09/22 08:10:04;;;;;;;8.63;5.72;;;;;;;-149.78;51.66;49884.75;4860450;29;20124;-66
2021/09/22 08:12:29;;;;;;;7.35;5.13;;;;;;;-149.78;49.01;49869.13;4858651;29;20050;-67
2021/09/22 08:14:55;;;;;;;6.93;5.13;;;;;;;-149.78;48.86;49853.47;4850736;29;20125;-67
2021/09/22 08:17:20;;;;;;;6.95;4.60;;;;;;;-149.78;49.34;49865.19;4849566;29;20037;-66
2021/09/22 08:19:46;;;;;;;5.40;4.25;;;;;;;-149.78;49.37;49869.13;4857722;29;20089;-66
2021/09/22 08:22:12;;;;;;;6.78;4.70;;;;;;;-149.78;49.09;49841.72;4848967;29;20065;-66
2021/09/22 08:24:38;;;;;;;5.22;4.03;;;;;;;-149.78;49.22;49884.75;4858823;29;20038;-66
2021/09/22 08:27:06;;;;;;;5.30;4.15;;;;;;;-149.78;49.46;49865.19;4853924;29;20419;-66
2021/09/22 08:29:33;;;;;;;6.38;4.40;;;;;;;-149.78;48.62;49888.66;4855486;29;20077;-66
2021/09/22 08:31:59;;;;;;;5.65;4.00;;;;;;;-149.78;46.77;49826.09;4856817;29;20545;-66
2021/09/22 08:34:25;;;;;;;4.70;3.78;;;;;;;-149.78;45.10;49820.22;4856540;29;20037;-66
2021/09/22 08:36:51;;;;;;;4.25;3.40;;;;;;;-149.78;46.00;49826.09;4859018;29;20025;-66
2021/09/22 08:39:18;;;;;;;6.72;3.88;;;;;;;-149.78;45.47;49775.25;4863778;29;20061;-66
2021/09/22 08:41:45;;;;;;;4.90;3.85;;;;;;;-149.78;46.98;49841.72;4858221;29;20041;-65
2021/09/22 08:44:13;;;;;;;3.97;3.33;;;;;;;-149.78;45.00;49835.88;4860630;29;20033;-66
2021/09/22 08:46:41;;;;;;;6.15;3.97;;;;;;;-149.78;47.38;49861.28;4858767;29;20124;-66
2021/09/22 08:49:09;;;;;;;5.82;3.80;;;;;;;-149.78;48.99;49828.03;4839529;29;20105;-65
2021/09/22 08:51:35;;;;;;;4.88;3.80;;;;;;;-149.78;49.90;49880.84;4841962;29;20458;-65
2021/09/22 08:54:03;;;;;;;4.22;3.20;;;;;;;-149.78;49.92;49869.13;4860423;29;20044;-65
2021/09/22 08:56:29;;;;;;;5.25;3.50;;;;;;;-149.78;49.79;49892.56;4859973;29;20355;-65
2021/09/22 08:58:55;;;;;;;6.22;3.55;;;;;;;-149.78;49.72;49841.72;4858249;29;20093;-65
2021/09/22 09:01:25;;;;;;;7.30;3.90;;;;;;;-149.78;49.97;49906.25;4847112;29;20108;-65
2021/09/22 09:03:51;;;;;;;4.68;3.55;;;;;;;-149.78;52.60;49904.31;4853971;29;20033;-65
2021/09/22 09:06:26;;;;;;;5.80;3.72;;;;;;;-149.78;55.76;49986.44;4853836;29;20048;-65
2021/09/22 09:08:55;;;;;;;5.30;3.50;;;;;;;-149.78;59.58;49990.34;4856790;29;20374;-65
2021/09/22 09:11:43;;;;;;;5.03;4.03;;;;;;;-149.78;65.59;49988.41;4859743;29;20049;-64
2021/09/22 09:14:12;;;;;;;5.53;3.75;;;;;;;-149.78;71.21;50017.72;4849270;29;20139;-64
2021/09/22 09:16:38;;;;;;;6.68;4.00;;;;;;;-149.78;74.61;50017.72;4846535;29;20040;-64
2021/09/22 09:19:13;;;;;;;4.18;3.30;;;;;;;-149.78;66.13;49998.19;4858314;29;20112;-64
2021/09/22 09:21:52;;;;;;;3.90;2.70;;;;;;;-149.78;60.15;49959.06;4857302;29;20035;-64
2021/09/22 09:24:36;;;;;;;3.80;2.72;;;;;;;-149.78;56.22;49927.78;4844937;29;20029;-64
2021/09/22 09:27:08;;;;;;;3.83;2.20;;;;;;;-149.78;54.43;49916.03;4851613;29;20124;-64
2021/09/22 09:29:34;;;;;;;;;;;;;;;-149.78;54.80;49919.94;4860706;29;20120;-64
2021/09/22 09:32:29;;;;;;;4.03;2.70;;;;;;;-149.78;58.12;50006.00;4854952;29;19916;-64
2021/09/22 09:35:22;;;;;;;5.43;2.83;;;;;;;-149.78;62.73;49982.53;4832147;29;20045;-64
2021/09/22 09:37:49;;;;;;;5.32;3.15;;;;;;;-149.78;64.91;50006.00;4863040;29;20487;-63
2021/09/22 09:40:17;;;;;;;4.72;3.00;;;;;;;-149.78;65.71;49996.22;4855629;29;20049;-67
2021/09/22 09:42:44;;;;;;;4.13;3.00;;;;;;;-149.78;64.38;50013.81;4859633;29;20033;-63
2021/09/22 09:45:11;;;;;;;4.05;2.97;;;;;;;-149.78;64.92;50006.00;4857158;29;20044;-63
2021/09/22 09:47:36;;;;;;;6.32;2.85;;;;;;;-149.78;64.21;50013.81;4863469;29;20181;-62
2021/09/22 09:50:22;;;;;;;4.22;2.40;;;;;;;-149.78;62.67;49980.56;4860611;29;20041;-62
2021/09/22 09:52:57;;;;;;;3.05;2.55;;;;;;;-149.78;56.94;49964.94;4860024;29;20490;-63
2021/09/22 09:55:24;;;;;;;5.57;3.10;;;;;;;-149.78;53.77;49945.38;4860152;29;20462;-58
2021/09/22 09:57:53;;;;;;;3.60;2.80;;;;;;;-149.78;52.36;49951.25;4854838;29;20034;-59
2021/09/22 10:00:43;;;;;;;5.93;3.10;;;;;;;-149.78;51.36;49927.78;4854940;29;20033;-59
2021/09/22 10:03:27;;;;;;;3.88;2.78;;;;;;;-149.78;52.26;49919.94;4855132;29;20105;-63
2021/09/22 10:05:53;;;;;;;4.43;3.10;;;;;;;-149.78;54.39;49978.63;4859950;29;20041;-63
2021/09/22 10:08:21;;;;;;;8.70;3.13;;;;;;;-149.78;55.70;49961.03;4858377;29;20065;-63
2021/09/22 10:10:50;;;;;;;3.58;2.78;;;;;;;-149.78;56.68;49982.53;4861835;29;20052;-63
2021/09/22 10:13:18;;;;;;;6.85;5.05;;;;;;;-149.78;55.87;49994.25;4860563;29;20033;-63
2021/09/22 10:15:45;;;;;;;7.28;4.63;;;;;;;-149.78;59.83;49994.25;4856124;29;20037;-63
2021/09/22 10:18:12;;;;;;;4.90;4.10;;;;;;;-149.78;61.00;50002.09;4861805;29;20029;-63
2021/09/22 10:20:39;;;;;;;4.65;3.97;;;;;;;-149.78;63.17;50004.03;4858463;29;20097;-63
2021/09/22 10:23:07;;;;;;;4.65;3.58;;;;;;;-149.78;64.91;50017.72;4862394;29;20390;-63
2021/09/22 10:25:33;;;;;;;6.13;2.97;;;;;;;-149.78;66.01;50025.56;4859545;29;20386;-63
2021/09/22 10:27:59;;;;;;;3.70;2.88;;;;;;;-149.78;64.86;49998.19;4862320;29;20029;-62
2021/09/22 10:30:36;;;;;;;3.60;2.28;;;;;;;-149.78;65.47;50074.44;4861713;29;20042;-62
2021/09/22 10:33:02;;;;;;;3.75;2.80;;;;;;;-149.78;65.61;50049.03;4859794;29;20170;-62
2021/09/22 10:35:39;;;;;;;4.32;2.47;;;;;;;-149.78;67.02;50029.47;4862321;29;20133;-63
2021/09/22 10:38:20;;;;;;;3.63;3.10;;;;;;;-149.78;71.81;50058.78;4857453;29;20475;-63
2021/09/22 10:40:52;;;;;;;6.07;3.20;;;;;;;-149.78;74.37;50011.88;4862858;29;20038;-63
2021/09/22 10:43:21;;;;;;;20.67;5.20;;;;;;;-149.78;76.82;50062.72;4854678;29;20033;-63
2021/09/22 10:46:10;;;;;;;11.57;4.65;;;;;;;-149.78;80.11;50070.53;4861535;29;20097;-63
2021/09/22 10:48:50;;;;;;;8.27;4.78;;;;;;;-149.78;82.38;50060.75;4849284;29;20061;-63
2021/09/22 10:51:31;;;;;;;3.72;2.88;;;;;;;-149.78;79.38;50049.03;4860102;29;20102;-62
2021/09/22 10:54:07;;;;;;;4.68;3.28;;;;;;;-149.78;79.03;50049.03;4859118;29;20108;-63
2021/09/22 10:56:34;;;;;;;4.60;3.80;;;;;;;-149.78;82.90;50041.19;4853399;29;20049;-63
2021/09/22 10:59:02;;;;;;;8.50;5.30;;;;;;;-149.78;87.41;50045.09;4856479;29;20458;-62
2021/09/22 11:01:31;;;;;;;6.38;5.38;;;;;;;-149.78;91.42;50099.88;4832101;29;20151;-63